Time;durP1;ratioP1;P1;durP2;ratioP2;P2;SDS_P1;SDS_P2;PMS_P1;PMS_P2;Temp;Humidity;BMP_temperature;BMP_pressure;BME280_temperature;BME280_humidity;BME280_pressure;Samples;Min_cycle;Max_cycle;Signal;HPM_P1;HPM_P2
2022/08/30 00:03:20;;;;;;;2.42;1.30;;;16.00;58.10;;;;;;4914400;29;20207;-44
2022/08/30 00:05:51;;;;;;;2.55;1.70;;;16.10;58.00;;;;;;4914723;29;20668;-50
2022/08/30 00:08:22;;;;;;;1.98;1.50;;;16.10;57.80;;;;;;4906529;29;20205;-40
2022/08/30 00:10:53;;;;;;;2.85;1.70;;;16.20;57.80;;;;;;4895423;29;20212;-34
2022/08/30 00:13:25;;;;;;;3.85;1.75;;;16.20;57.80;;;;;;4894983;29;20201;-45
2022/08/30 00:15:57;;;;;;;4.15;1.65;;;16.30;57.90;;;;;;4894729;29;20205;-34
2022/08/30 00:18:28;;;;;;;2.22;1.73;;;16.30;58.00;;;;;;4895032;29;20233;-39
2022/08/30 00:20:59;;;;;;;2.15;1.80;;;16.40;58.10;;;;;;4895167;29;20208;-44
2022/08/30 00:23:30;;;;;;;3.22;1.90;;;16.40;58.00;;;;;;4895115;29;20204;-45
2022/08/30 00:26:00;;;;;;;5.75;2.00;;;16.50;58.00;;;;;;4895519;29;20232;-47
2022/08/30 00:28:32;;;;;;;2.80;2.00;;;16.50;58.10;;;;;;4895035;29;20224;-49
2022/08/30 00:31:06;;;;;;;3.33;2.25;;;16.60;58.10;;;;;;4894621;29;20257;-41
2022/08/30 00:33:37;;;;;;;3.15;1.50;;;16.60;58.10;;;;;;4895051;29;20204;-55
2022/08/30 00:36:08;;;;;;;2.03;1.45;;;16.60;58.90;;;;;;4894828;29;20253;-35
2022/08/30 00:38:38;;;;;;;3.80;2.30;;;16.70;59.80;;;;;;4894889;29;20231;-43
2022/08/30 00:41:09;;;;;;;4.47;2.10;;;16.80;59.50;;;;;;4894966;29;20212;-40
2022/08/30 00:43:40;;;;;;;4.45;1.92;;;16.90;59.00;;;;;;4894602;29;20708;-46
2022/08/30 00:46:12;;;;;;;5.05;1.75;;;16.90;59.40;;;;;;4893963;29;20213;-41
2022/08/30 00:48:46;;;;;;;3.97;2.25;;;17.00;59.80;;;;;;4891638;29;20235;-42
2022/08/30 00:51:18;;;;;;;4.57;2.17;;;17.00;59.30;;;;;;4898091;29;20304;-52
2022/08/30 00:53:53;;;;;;;4.50;2.20;;;17.10;58.90;;;;;;4895585;29;20228;-46
2022/08/30 00:56:26;;;;;;;3.60;2.03;;;17.10;58.60;;;;;;4894604;29;20235;-52
2022/08/30 00:59:00;;;;;;;4.65;2.20;;;17.20;58.50;;;;;;4895690;29;20225;-47
2022/08/30 01:01:34;;;;;;;3.35;2.40;;;17.20;58.30;;;;;;4895137;29;20676;-45
2022/08/30 01:04:07;;;;;;;7.03;2.58;;;17.30;58.20;;;;;;4895332;29;20268;-53
2022/08/30 01:06:38;;;;;;;4.00;2.88;;;17.30;58.10;;;;;;4894575;29;20283;-46
2022/08/30 01:09:10;;;;;;;6.22;3.30;;;17.30;58.00;;;;;;4895058;29;20197;-48
2022/08/30 01:11:43;;;;;;;4.57;2.88;;;17.40;58.00;;;;;;4895464;29;20201;-51
2022/08/30 01:14:16;;;;;;;5.25;2.53;;;17.40;57.90;;;;;;4895906;29;20213;-40
2022/08/30 01:16:49;;;;;;;5.15;3.15;;;17.40;58.00;;;;;;4895110;29;20667;-51
2022/08/30 01:19:30;;;;;;;4.78;3.25;;;17.50;57.90;;;;;;4895378;29;20251;-52
2022/08/30 01:22:04;;;;;;;4.43;3.25;;;17.50;57.70;;;;;;4894056;29;20204;-43
2022/08/30 01:24:38;;;;;;;5.88;3.28;;;17.50;57.60;;;;;;4895412;29;20239;-35
2022/08/30 01:27:08;;;;;;;4.60;2.90;;;17.60;57.50;;;;;;4895558;29;20216;-45
2022/08/30 01:29:39;;;;;;;5.32;3.08;;;17.60;57.40;;;;;;4896126;29;20203;-53
2022/08/30 01:32:17;;;;;;;5.13;2.60;;;17.70;57.30;;;;;;4895110;29;20197;-35
2022/08/30 01:34:48;;;;;;;4.35;2.80;;;17.70;57.20;;;;;;4901956;29;20267;-55
2022/08/30 01:37:25;;;;;;;3.75;2.67;;;17.70;57.20;;;;;;4914194;29;20591;-52
2022/08/30 01:39:58;;;;;;;3.67;2.50;;;17.80;57.10;;;;;;4903460;23;20232;-36
2022/08/30 01:42:29;;;;;;;3.17;2.08;;;17.80;57.00;;;;;;4913393;29;20580;-36
2022/08/30 01:44:59;;;;;;;4.20;2.50;;;17.80;56.90;;;;;;4887647;29;20392;-35
2022/08/30 01:47:30;;;;;;;4.90;2.63;;;17.90;56.90;;;;;;4876424;29;20214;-36
2022/08/30 01:50:01;;;;;;;3.63;2.40;;;17.90;56.80;;;;;;4876242;29;20197;-36
2022/08/30 01:52:32;;;;;;;4.50;2.30;;;17.90;56.70;;;;;;4875893;29;20213;-41
2022/08/30 01:55:05;;;;;;;3.35;2.45;;;18.00;56.60;;;;;;4876119;29;20225;-35
2022/08/30 01:57:36;;;;;;;4.95;2.58;;;18.00;56.50;;;;;;4875362;29;20202;-37
2022/08/30 02:00:08;;;;;;;3.75;2.17;;;18.00;56.40;;;;;;4875638;29;20742;-38
2022/08/30 02:02:39;;;;;;;3.60;2.20;;;18.10;56.50;;;;;;4875737;29;20209;-36
2022/08/30 02:05:10;;;;;;;3.95;2.25;;;18.10;56.40;;;;;;4876304;29;20230;-36
2022/08/30 02:07:41;;;;;;;2.50;2.05;;;18.10;56.20;;;;;;4885807;29;20205;-36
2022/08/30 02:10:14;;;;;;;3.33;2.00;;;18.10;56.20;;;;;;4875524;29;20221;-35
2022/08/30 02:12:46;;;;;;;4.18;2.35;;;18.10;56.10;;;;;;4875476;29;20205;-35
2022/08/30 02:15:17;;;;;;;3.15;1.92;;;18.20;56.00;;;;;;4876249;29;20306;-35
2022/08/30 02:17:47;;;;;;;3.75;2.15;;;18.20;55.90;;;;;;4876065;29;20198;-36
2022/08/30 02:20:18;;;;;;;2.67;1.85;;;18.20;55.90;;;;;;4875950;29;20232;-36
2022/08/30 02:22:49;;;;;;;2.78;1.83;;;18.20;55.80;;;;;;4876421;29;20198;-41
2022/08/30 02:25:22;;;;;;;2.85;2.00;;;18.30;55.80;;;;;;4875587;29;20228;-38
2022/08/30 02:27:52;;;;;;;3.47;1.83;;;18.30;55.70;;;;;;4876097;29;20216;-38
2022/08/30 02:30:23;;;;;;;3.83;2.17;;;18.30;55.70;;;;;;4875560;29;20205;-36
2022/08/30 02:32:54;;;;;;;3.28;1.77;;;18.30;55.60;;;;;;4877269;29;20205;-35
2022/08/30 02:35:25;;;;;;;2.13;1.67;;;18.40;55.60;;;;;;4879117;29;20232;-36
2022/08/30 02:37:55;;;;;;;1.98;1.80;;;18.40;55.50;;;;;;4879835;29;20649;-39
2022/08/30 02:40:28;;;;;;;2.40;1.65;;;18.40;55.50;;;;;;4874840;29;20241;-36
2022/08/30 02:42:59;;;;;;;3.13;1.70;;;18.50;55.40;;;;;;4869261;29;20209;-37
2022/08/30 02:45:30;;;;;;;4.75;2.00;;;18.50;55.30;;;;;;4878706;29;20311;-37
2022/08/30 02:48:00;;;;;;;3.85;1.90;;;18.50;55.30;;;;;;4878800;29;20206;-35
2022/08/30 02:50:31;;;;;;;2.60;1.73;;;18.50;55.30;;;;;;4879374;29;20200;-42
2022/08/30 02:53:02;;;;;;;2.85;1.60;;;18.50;55.30;;;;;;4878992;29;20262;-35
2022/08/30 02:55:35;;;;;;;3.90;1.80;;;18.60;55.30;;;;;;4878644;29;20694;-40
2022/08/30 02:58:05;;;;;;;2.20;1.58;;;18.60;55.30;;;;;;4859823;29;20286;-36
2022/08/30 03:00:36;;;;;;;3.97;1.77;;;18.60;55.30;;;;;;4869587;29;20217;-37
2022/08/30 03:03:07;;;;;;;3.50;1.70;;;18.60;55.20;;;;;;4878937;29;20202;-38
2022/08/30 03:05:38;;;;;;;3.33;1.67;;;18.70;55.20;;;;;;4878831;29;20213;-35
2022/08/30 03:08:09;;;;;;;4.93;2.10;;;18.70;55.20;;;;;;4878972;29;20266;-39
2022/08/30 03:10:41;;;;;;;2.33;1.67;;;18.70;55.30;;;;;;4878620;29;20198;-38
2022/08/30 03:13:12;;;;;;;2.58;1.83;;;18.80;55.30;;;;;;4883744;29;20201;-35
2022/08/30 03:15:43;;;;;;;3.05;1.70;;;18.80;55.20;;;;;;4896327;29;20239;-38
2022/08/30 03:18:14;;;;;;;4.60;1.90;;;18.80;55.10;;;;;;4895639;29;20204;-34
2022/08/30 03:20:45;;;;;;;3.50;1.75;;;18.90;55.20;;;;;;4894762;29;20264;-35
2022/08/30 03:23:16;;;;;;;4.28;1.75;;;18.90;55.20;;;;;;4894684;29;20661;-35
2022/08/30 03:25:48;;;;;;;2.20;1.77;;;18.90;55.20;;;;;;4894645;29;20565;-35
2022/08/30 03:28:19;;;;;;;2.15;1.50;;;18.90;55.20;;;;;;4883769;29;20231;-40
2022/08/30 03:30:50;;;;;;;2.83;1.98;;;19.00;55.20;;;;;;4876210;29;20212;-36
2022/08/30 03:33:20;;;;;;;3.00;1.60;;;19.00;55.10;;;;;;4877009;29;20660;-35
2022/08/30 03:35:51;;;;;;;2.00;1.60;;;19.00;55.10;;;;;;4877054;29;20205;-35
2022/08/30 03:38:23;;;;;;;3.10;2.10;;;19.10;55.20;;;;;;4876773;29;20206;-35
2022/08/30 04:40:29;;;;;;;4.22;2.67;;;19.50;54.30;;;;;;5362887;23;20235;-39
2022/08/30 04:42:59;;;;;;;3.38;2.60;;;19.50;54.30;;;;;;4913749;29;20196;-56
2022/08/30 04:45:30;;;;;;;2.92;2.63;;;19.40;54.40;;;;;;4896407;29;20224;-34
2022/08/30 04:48:01;;;;;;;5.93;3.13;;;19.50;54.40;;;;;;4894777;29;20256;-35
2022/08/30 04:50:31;;;;;;;4.25;2.97;;;19.40;54.30;;;;;;4894534;29;20207;-46
2022/08/30 04:53:02;;;;;;;3.42;3.13;;;19.40;54.30;;;;;;4885530;29;20559;-44
2022/08/30 04:55:35;;;;;;;3.78;3.47;;;19.40;54.30;;;;;;4883866;29;20220;-36
2022/08/30 04:58:05;;;;;;;4.82;3.83;;;19.40;54.10;;;;;;4894362;29;20205;-45
2022/08/30 05:00:36;;;;;;;4.78;4.13;;;19.40;54.20;;;;;;4894108;29;20233;-41
2022/08/30 05:03:07;;;;;;;4.00;3.70;;;19.50;54.10;;;;;;4887523;29;20685;-49
2022/08/30 05:05:41;;;;;;;4.78;4.18;;;19.40;53.80;;;;;;4875567;29;20232;-34
2022/08/30 05:08:13;;;;;;;4.28;3.83;;;19.40;53.80;;;;;;4875257;29;20521;-49
2022/08/30 05:10:52;;;;;;;4.90;4.20;;;19.40;53.80;;;;;;4871787;29;20809;-34
2022/08/30 05:13:24;;;;;;;3.90;3.60;;;19.40;53.80;;;;;;4876622;29;20261;-41
2022/08/30 05:15:55;;;;;;;4.50;3.80;;;19.30;53.80;;;;;;4876019;29;20213;-54
2022/08/30 05:18:26;;;;;;;5.03;4.00;;;19.30;53.70;;;;;;4876550;29;20213;-40
2022/08/30 05:21:07;;;;;;;4.63;3.88;;;19.30;53.60;;;;;;4886741;29;20697;-50
2022/08/30 05:23:38;;;;;;;4.05;3.65;;;19.30;53.70;;;;;;4894786;29;20197;-34
2022/08/30 05:26:12;;;;;;;3.65;3.35;;;19.30;53.80;;;;;;4895059;29;20200;-38
2022/08/30 05:28:44;;;;;;;5.38;3.35;;;19.30;54.00;;;;;;4892144;29;20663;-37
2022/08/30 05:31:19;;;;;;;3.97;3.17;;;19.20;54.00;;;;;;4882916;29;20226;-43
2022/08/30 05:33:51;;;;;;;4.80;3.60;;;19.20;53.90;;;;;;4876498;29;20221;-42
2022/08/30 05:36:23;;;;;;;4.35;3.50;;;19.20;53.90;;;;;;4876983;29;20562;-42
2022/08/30 05:38:54;;;;;;;4.10;3.65;;;19.20;53.90;;;;;;4876125;29;20217;-44
2022/08/30 05:41:27;;;;;;;3.78;3.10;;;19.20;53.90;;;;;;4906251;23;20236;-36
2022/08/30 05:43:58;;;;;;;3.72;3.35;;;19.10;53.90;;;;;;4894669;29;20217;-37
2022/08/30 05:46:32;;;;;;;3.65;2.92;;;19.10;53.90;;;;;;4894682;29;20197;-34
2022/08/30 05:49:03;;;;;;;3.17;2.92;;;19.10;54.00;;;;;;4894528;29;20201;-39
2022/08/30 05:51:36;;;;;;;3.13;2.85;;;19.10;53.90;;;;;;4894116;29;20236;-35
2022/08/30 05:54:07;;;;;;;3.72;3.20;;;19.00;54.00;;;;;;4893148;29;20732;-41
2022/08/30 05:56:41;;;;;;;3.85;3.45;;;19.00;54.00;;;;;;4894326;29;20201;-39
2022/08/30 05:59:12;;;;;;;3.47;3.17;;;19.00;54.00;;;;;;4894314;29;20212;-41
2022/08/30 06:01:44;;;;;;;4.10;3.10;;;19.00;54.10;;;;;;4893739;29;20204;-34
2022/08/30 06:04:15;;;;;;;3.50;3.13;;;19.00;54.10;;;;;;4894340;29;20217;-42
2022/08/30 06:06:46;;;;;;;3.72;3.15;;;18.90;54.10;;;;;;4894928;29;20200;-43
2022/08/30 06:09:17;;;;;;;3.65;3.00;;;18.90;54.10;;;;;;4899251;29;20577;-35
2022/08/30 06:11:50;;;;;;;3.85;3.53;;;18.90;54.20;;;;;;4898147;29;20201;-42
2022/08/30 06:14:20;;;;;;;3.10;2.90;;;18.90;54.20;;;;;;4898057;29;20224;-35
2022/08/30 06:16:52;;;;;;;3.47;2.97;;;18.80;54.20;;;;;;4898865;29;20212;-34
2022/08/30 06:19:23;;;;;;;3.30;3.00;;;18.80;54.20;;;;;;4898073;29;20287;-34
2022/08/30 06:21:54;;;;;;;3.30;3.00;;;18.80;54.20;;;;;;4898561;29;20203;-38
2022/08/30 06:24:24;;;;;;;3.03;2.83;;;18.70;54.10;;;;;;4897728;29;20305;-42
2022/08/30 06:26:57;;;;;;;4.10;3.33;;;18.70;54.20;;;;;;4898043;29;20561;-38
2022/08/30 06:29:28;;;;;;;3.35;3.05;;;18.70;54.20;;;;;;4901429;29;20197;-34
2022/08/30 06:32:00;;;;;;;3.25;2.95;;;18.60;54.30;;;;;;4901703;29;20679;-34
2022/08/30 06:34:31;;;;;;;4.00;3.15;;;18.60;54.30;;;;;;4897867;29;20285;-38
2022/08/30 06:37:01;;;;;;;3.90;3.28;;;18.60;54.30;;;;;;4898292;29;20680;-39
2022/08/30 06:39:32;;;;;;;3.92;3.42;;;18.60;54.30;;;;;;4897952;29;20229;-34
2022/08/30 06:42:04;;;;;;;3.83;3.30;;;18.50;54.20;;;;;;4897465;29;20201;-35
2022/08/30 06:44:35;;;;;;;5.30;3.70;;;18.50;54.20;;;;;;4898194;29;20221;-33
2022/08/30 06:47:06;;;;;;;5.47;3.65;;;18.50;54.30;;;;;;4897716;29;20201;-34
2022/08/30 06:49:37;;;;;;;3.95;3.45;;;18.50;54.30;;;;;;4897772;29;20253;-34
2022/08/30 06:52:07;;;;;;;4.40;3.90;;;18.40;54.30;;;;;;4897431;29;20197;-34
2022/08/30 06:54:38;;;;;;;3.75;3.45;;;18.40;54.30;;;;;;4897872;29;20228;-33
2022/08/30 06:57:11;;;;;;;3.90;3.60;;;18.30;54.30;;;;;;4888901;29;20206;-34
2022/08/30 06:59:42;;;;;;;5.05;3.80;;;18.30;54.30;;;;;;4879927;29;20674;-34
2022/08/30 07:02:12;;;;;;;4.00;3.60;;;18.30;54.40;;;;;;4894544;29;20653;-37
2022/08/30 07:04:43;;;;;;;4.93;3.80;;;18.30;54.40;;;;;;4897156;29;20228;-35
2022/08/30 07:07:14;;;;;;;4.10;3.75;;;18.20;54.40;;;;;;4897605;29;20197;-40
2022/08/30 07:09:45;;;;;;;3.90;3.50;;;18.20;54.40;;;;;;4897871;29;20208;-34
2022/08/30 07:12:17;;;;;;;3.65;3.35;;;18.20;54.40;;;;;;4897933;29;20193;-33
2022/08/30 07:14:48;;;;;;;4.07;3.40;;;18.20;54.40;;;;;;4897335;29;20316;-36
2022/08/30 07:20:06;;;;;;;4.85;3.72;;;18.10;54.40;;;;;;4897407;29;20227;-34
2022/08/30 07:22:37;;;;;;;4.22;3.42;;;18.10;54.40;;;;;;4897054;29;20197;-34
2022/08/30 07:25:08;;;;;;;4.13;3.45;;;18.00;54.40;;;;;;4897211;29;20910;-34
2022/08/30 07:27:41;;;;;;;3.90;3.50;;;18.00;54.50;;;;;;4897065;29;20201;-34
2022/08/30 07:30:12;;;;;;;4.07;3.55;;;18.00;54.50;;;;;;4899065;29;20209;-36
2022/08/30 07:32:43;;;;;;;3.92;3.22;;;18.00;54.60;;;;;;4914549;29;20599;-34
2022/08/30 07:35:14;;;;;;;4.45;3.45;;;17.90;54.60;;;;;;4915694;29;20227;-33
2022/08/30 07:37:44;;;;;;;5.40;3.50;;;17.90;54.60;;;;;;4913095;29;20196;-34
2022/08/30 07:40:15;;;;;;;4.63;3.58;;;17.90;54.70;;;;;;4914378;23;20618;-39
2022/08/30 07:42:49;;;;;;;3.47;3.05;;;17.80;54.60;;;;;;4912925;29;20611;-45
2022/08/30 07:45:20;;;;;;;3.60;3.28;;;17.80;54.70;;;;;;4897658;29;20316;-37
2022/08/30 07:47:51;;;;;;;3.75;3.35;;;17.80;54.80;;;;;;4894471;29;20203;-36
2022/08/30 07:50:21;;;;;;;3.70;3.10;;;17.70;54.80;;;;;;4894475;29;20685;-38
2022/08/30 07:52:52;;;;;;;3.75;3.20;;;17.70;54.80;;;;;;4893072;29;20205;-38
2022/08/30 07:55:23;;;;;;;4.32;3.10;;;17.70;54.80;;;;;;4894100;29;20216;-43
2022/08/30 07:57:55;;;;;;;4.50;3.80;;;17.70;54.90;;;;;;4895526;29;20216;-38
2022/08/30 08:00:26;;;;;;;4.80;3.47;;;17.70;54.90;;;;;;4895458;29;20224;-39
2022/08/30 08:02:57;;;;;;;3.65;3.28;;;17.60;54.80;;;;;;4895303;29;20208;-40
2022/08/30 08:05:27;;;;;;;3.92;3.45;;;17.60;54.80;;;;;;4895542;29;20557;-45
2022/08/30 08:07:58;;;;;;;4.63;3.50;;;17.60;54.90;;;;;;4891117;29;20202;-40
2022/08/30 08:10:29;;;;;;;4.03;3.55;;;17.60;54.90;;;;;;4876260;29;20201;-34
2022/08/30 08:13:01;;;;;;;4.55;3.20;;;17.60;54.90;;;;;;4876370;29;20208;-47
2022/08/30 08:15:32;;;;;;;4.45;3.38;;;17.50;54.90;;;;;;4876449;29;20218;-41
2022/08/30 08:18:03;;;;;;;3.50;3.20;;;17.50;55.00;;;;;;4876218;29;20390;-43
2022/08/30 08:20:34;;;;;;;4.40;3.83;;;17.40;55.00;;;;;;4876115;29;20244;-45
2022/08/30 08:23:05;;;;;;;4.78;3.38;;;17.40;55.10;;;;;;4884489;29;20288;-42
2022/08/30 08:25:40;;;;;;;3.95;3.53;;;17.40;55.00;;;;;;4895189;29;20244;-36
2022/08/30 08:28:13;;;;;;;3.75;3.33;;;17.30;55.00;;;;;;4894887;29;20201;-36
2022/08/30 08:30:43;;;;;;;3.88;3.38;;;17.30;55.10;;;;;;4894515;29;20217;-39
2022/08/30 08:33:14;;;;;;;4.13;3.70;;;17.30;55.10;;;;;;4895021;29;20635;-48
2022/08/30 08:35:45;;;;;;;3.58;3.10;;;17.30;55.10;;;;;;4894836;29;20236;-50
2022/08/30 08:38:15;;;;;;;3.95;3.00;;;17.30;55.10;;;;;;4887969;29;20201;-45
2022/08/30 08:41:06;;;;;;;3.72;2.78;;;17.30;55.10;;;;;;4917961;23;20231;-35
2022/08/30 08:43:42;;;;;;;3.70;3.13;;;17.20;55.10;;;;;;4930089;29;20202;-38
2022/08/30 08:46:18;;;;;;;4.20;3.30;;;17.20;55.20;;;;;;4913176;29;20196;-34
2022/08/30 08:48:51;;;;;;;3.60;3.25;;;17.10;55.20;;;;;;4912442;29;20203;-34
2022/08/30 08:54:16;;;;;;;3.30;3.00;;;17.10;55.30;;;;;;4909633;29;20711;-35
2022/08/30 08:56:47;;;;;;;3.38;2.92;;;17.00;55.30;;;;;;4913860;29;20215;-35
2022/08/30 08:59:20;;;;;;;4.22;3.42;;;17.00;55.30;;;;;;4913459;29;20492;-38
2022/08/30 09:01:51;;;;;;;3.70;2.65;;;17.00;55.40;;;;;;4913633;29;20246;-34
2022/08/30 09:04:26;;;;;;;3.33;3.03;;;17.00;55.40;;;;;;4912946;29;20224;-35
2022/08/30 09:06:59;;;;;;;4.22;3.13;;;17.00;55.40;;;;;;4913208;29;20660;-34
2022/08/30 09:09:33;;;;;;;3.03;2.70;;;16.90;55.30;;;;;;4895388;29;20201;-34
2022/08/30 09:12:04;;;;;;;3.53;2.95;;;16.90;55.90;;;;;;4894253;29;20208;-44
2022/08/30 09:14:41;;;;;;;3.28;2.97;;;16.90;55.40;;;;;;4894388;29;20239;-34
2022/08/30 09:17:13;;;;;;;2.90;2.60;;;16.80;55.70;;;;;;4892238;29;20204;-34
2022/08/30 09:19:46;;;;;;;3.05;2.63;;;16.80;55.90;;;;;;4897644;29;20295;-36
2022/08/30 09:22:35;;;;;;;3.38;3.00;;;16.80;55.90;;;;;;4903489;29;20232;-34
2022/08/30 09:25:11;;;;;;;3.50;3.20;;;16.80;55.90;;;;;;4893759;29;20734;-35
2022/08/30 09:27:43;;;;;;;3.83;2.97;;;16.80;55.90;;;;;;4893833;29;20291;-36
2022/08/30 09:30:19;;;;;;;3.10;2.72;;;16.70;55.90;;;;;;4894586;29;20197;-35
2022/08/30 09:32:55;;;;;;;3.78;3.40;;;16.70;55.90;;;;;;4893974;29;20211;-35
2022/08/30 09:35:34;;;;;;;2.70;2.50;;;16.70;55.90;;;;;;4895114;29;20213;-39
2022/08/30 09:38:08;;;;;;;3.03;2.72;;;16.70;55.90;;;;;;4895087;29;20208;-35
2022/08/30 09:40:42;;;;;;;3.47;2.55;;;16.70;55.90;;;;;;4908307;23;20314;-34
2022/08/30 09:43:22;;;;;;;3.22;2.75;;;16.60;55.80;;;;;;4897280;29;20205;-35
2022/08/30 09:46:10;;;;;;;3.28;2.80;;;16.60;55.80;;;;;;4879979;29;20214;-36
2022/08/30 09:48:43;;;;;;;3.75;3.08;;;16.60;55.80;;;;;;4879477;29;20201;-35
2022/08/30 09:51:35;;;;;;;4.30;2.75;;;16.50;55.80;;;;;;4880293;29;20199;-34
2022/08/30 09:54:15;;;;;;;3.13;2.83;;;16.50;55.90;;;;;;4879603;29;20248;-36
2022/08/30 09:56:56;;;;;;;3.40;2.90;;;16.50;55.90;;;;;;4879873;29;20205;-52
2022/08/30 09:59:41;;;;;;;5.25;3.20;;;16.50;56.00;;;;;;4878535;29;20205;-39
2022/08/30 10:02:31;;;;;;;3.15;2.85;;;16.40;56.00;;;;;;4880111;29;20693;-36
2022/08/30 10:05:10;;;;;;;3.67;3.05;;;16.40;56.00;;;;;;4878258;29;20274;-36
2022/08/30 10:07:51;;;;;;;4.00;3.08;;;16.40;55.90;;;;;;4878242;29;20243;-55
2022/08/30 10:10:30;;;;;;;4.45;3.40;;;16.40;55.90;;;;;;4878261;29;20189;-42
2022/08/30 10:13:13;;;;;;;4.20;3.25;;;16.40;55.90;;;;;;4879003;29;20215;-56
2022/08/30 10:15:49;;;;;;;4.30;3.63;;;16.30;55.90;;;;;;4879088;29;20229;-43
2022/08/30 10:18:29;;;;;;;4.07;3.17;;;16.30;55.90;;;;;;4879313;29;20661;-40
2022/08/30 10:21:08;;;;;;;4.80;3.63;;;16.30;55.90;;;;;;4879519;29;20581;-55
2022/08/30 10:23:43;;;;;;;4.55;3.38;;;16.30;56.00;;;;;;4879374;29;20288;-56
2022/08/30 10:26:28;;;;;;;4.68;3.78;;;16.20;56.00;;;;;;4879229;29;20193;-50
2022/08/30 10:29:03;;;;;;;5.40;3.67;;;16.20;56.10;;;;;;4879136;29;20213;-54
2022/08/30 10:31:41;;;;;;;4.45;3.72;;;16.20;56.10;;;;;;4879538;29;20197;-43
2022/08/30 10:34:19;;;;;;;5.07;3.47;;;16.10;56.10;;;;;;4878839;29;20598;-42
2022/08/30 10:36:56;;;;;;;4.95;3.58;;;16.10;56.10;;;;;;4878743;29;20281;-41
2022/08/30 10:39:41;;;;;;;4.82;3.50;;;16.10;56.10;;;;;;4880085;29;20209;-68
2022/08/30 10:42:19;;;;;;;5.15;3.35;;;16.10;56.10;;;;;;4829216;29;20235;-33
2022/08/30 10:44:54;;;;;;;5.05;3.50;;;16.10;56.00;;;;;;4834737;29;20366;-37
2022/08/30 10:47:33;;;;;;;6.65;3.72;;;16.10;56.00;;;;;;4841909;29;20662;-34
2022/08/30 10:50:13;;;;;;;6.65;4.00;;;16.10;56.10;;;;;;4841939;29;20203;-33
2022/08/30 10:52:50;;;;;;;6.55;3.80;;;16.00;56.10;;;;;;4841251;29;20617;-35
2022/08/30 10:55:25;;;;;;;4.82;3.25;;;16.00;56.10;;;;;;4841146;29;20223;-39
2022/08/30 10:58:00;;;;;;;5.40;3.45;;;16.00;56.20;;;;;;4841667;29;20198;-39
2022/08/30 11:00:35;;;;;;;6.05;3.30;;;16.00;56.20;;;;;;4841736;29;20194;-40
2022/08/30 11:03:41;;;;;;;6.70;3.45;;;15.90;56.10;;;;;;4841623;29;20230;-34
2022/08/30 11:06:27;;;;;;;4.90;3.38;;;15.90;56.20;;;;;;4841974;29;20199;-34
2022/08/30 11:09:14;;;;;;;5.15;3.55;;;15.90;56.20;;;;;;4841752;29;20235;-34
2022/08/30 11:12:03;;;;;;;8.05;3.75;;;15.90;56.20;;;;;;4839190;29;20211;-33
2022/08/30 11:14:34;;;;;;;5.25;3.95;;;15.90;56.20;;;;;;4827675;29;20227;-34
2022/08/30 11:17:05;;;;;;;6.65;3.70;;;15.90;56.40;;;;;;4841563;29;20230;-37
2022/08/30 11:19:41;;;;;;;5.80;3.50;;;15.90;56.30;;;;;;4841796;29;20211;-33
2022/08/30 11:22:23;;;;;;;5.32;3.80;;;15.90;56.30;;;;;;4841660;29;20243;-33
2022/08/30 11:25:10;;;;;;;5.65;3.88;;;15.90;56.30;;;;;;4841496;29;20254;-33
2022/08/30 11:27:49;;;;;;;5.72;3.35;;;15.80;56.30;;;;;;4841048;29;20285;-33
2022/08/30 11:30:53;;;;;;;4.80;3.78;;;15.80;56.30;;;;;;4840360;29;20194;-38
2022/08/30 11:33:47;;;;;;;6.75;3.50;;;15.80;56.30;;;;;;4840334;29;20659;-33
2022/08/30 11:36:49;;;;;;;5.80;3.92;;;15.80;56.30;;;;;;4840439;29;20229;-33
2022/08/30 11:42:25;;;;;;;6.45;3.63;;;15.70;56.80;;;;;;4893657;29;20235;-38
2022/08/30 11:45:17;;;;;;;6.78;3.60;;;15.70;56.20;;;;;;4895791;29;20708;-37
2022/08/30 11:47:50;;;;;;;6.28;3.47;;;15.70;56.20;;;;;;4895599;29;20295;-34
2022/08/30 11:50:23;;;;;;;5.28;3.33;;;15.70;56.20;;;;;;4895871;29;20207;-36
2022/08/30 11:53:01;;;;;;;6.07;3.63;;;15.70;56.20;;;;;;4895253;29;20675;-39
2022/08/30 11:55:47;;;;;;;4.22;3.38;;;15.70;56.20;;;;;;4895545;29;20220;-41
2022/08/30 11:58:43;;;;;;;5.93;3.47;;;15.60;56.20;;;;;;4895683;29;20577;-38
2022/08/30 12:01:33;;;;;;;7.25;3.42;;;15.60;56.30;;;;;;4895395;29;20565;-51
2022/08/30 12:04:10;;;;;;;5.78;3.35;;;15.60;56.30;;;;;;4895041;29;20221;-44
2022/08/30 12:06:53;;;;;;;5.90;3.40;;;15.50;56.30;;;;;;4895408;29;20222;-44
2022/08/30 12:10:02;;;;;;;6.28;3.70;;;15.50;56.30;;;;;;4880557;29;20593;-38
2022/08/30 12:12:54;;;;;;;5.43;3.63;;;15.50;56.30;;;;;;4876512;29;20202;-37
2022/08/30 12:15:57;;;;;;;5.60;3.25;;;15.50;56.30;;;;;;4876147;29;20233;-40
2022/08/30 12:18:41;;;;;;;5.70;3.53;;;15.50;56.30;;;;;;4876628;29;20205;-35
2022/08/30 12:21:26;;;;;;;4.63;3.05;;;15.50;56.20;;;;;;4876390;29;20688;-36
2022/08/30 12:24:02;;;;;;;5.55;3.75;;;15.50;56.20;;;;;;4892020;29;20233;-42
2022/08/30 12:26:36;;;;;;;5.15;3.45;;;15.50;56.30;;;;;;4894916;29;20201;-44
2022/08/30 12:29:16;;;;;;;4.88;3.40;;;15.40;56.30;;;;;;4894992;29;20435;-39
2022/08/30 12:31:53;;;;;;;6.57;3.53;;;15.40;56.30;;;;;;4894949;29;20227;-37
2022/08/30 12:34:27;;;;;;;4.05;3.03;;;15.40;56.30;;;;;;4895120;29;20233;-49
2022/08/30 12:37:03;;;;;;;6.28;3.42;;;15.40;56.40;;;;;;4894636;29;20205;-45
2022/08/30 12:42:21;;;;;;;4.60;3.00;;;15.30;56.40;;;;;;4892909;29;20239;-39
2022/08/30 12:44:53;;;;;;;4.85;3.42;;;15.30;56.40;;;;;;4894827;29;20308;-34
2022/08/30 12:47:29;;;;;;;4.35;3.08;;;15.30;56.30;;;;;;4894904;29;20211;-34
2022/08/30 12:50:01;;;;;;;5.57;3.42;;;15.30;56.30;;;;;;4894677;29;20201;-33
2022/08/30 12:52:36;;;;;;;5.85;3.55;;;15.30;56.20;;;;;;4893770;29;20208;-33
2022/08/30 12:55:15;;;;;;;3.17;2.88;;;15.30;56.20;;;;;;4894204;29;20305;-34
2022/08/30 12:57:57;;;;;;;5.65;3.22;;;15.30;56.30;;;;;;4894065;29;20204;-34
2022/08/30 13:00:30;;;;;;;5.13;3.13;;;15.30;56.30;;;;;;4894093;29;20205;-33
2022/08/30 13:03:04;;;;;;;4.95;3.40;;;15.30;56.40;;;;;;4894580;29;20268;-33
2022/08/30 13:05:45;;;;;;;5.13;3.15;;;15.20;56.30;;;;;;4894484;29;20236;-40
2022/08/30 13:08:20;;;;;;;5.32;3.28;;;15.20;56.30;;;;;;4887132;29;20575;-33
2022/08/30 13:10:57;;;;;;;4.55;3.50;;;15.20;56.30;;;;;;4894467;29;20260;-33
2022/08/30 13:13:41;;;;;;;5.10;3.22;;;15.20;56.30;;;;;;4893637;29;20208;-33
2022/08/30 13:16:27;;;;;;;4.78;3.17;;;15.20;56.70;;;;;;4893890;29;20404;-35
2022/08/30 13:19:34;;;;;;;4.55;2.88;;;15.20;56.30;;;;;;4893868;29;20223;-39
2022/08/30 13:22:06;;;;;;;3.53;2.72;;;15.20;56.30;;;;;;4894039;29;20232;-40
2022/08/30 13:24:36;;;;;;;4.45;2.70;;;15.20;56.30;;;;;;4893801;29;20812;-40
2022/08/30 13:27:10;;;;;;;5.07;2.97;;;15.20;56.30;;;;;;4893975;29;20205;-37
2022/08/30 13:29:40;;;;;;;4.95;2.90;;;15.10;56.30;;;;;;4894067;29;20201;-38
2022/08/30 13:32:12;;;;;;;5.85;3.00;;;15.10;56.30;;;;;;4894207;29;20217;-38
2022/08/30 13:34:45;;;;;;;4.30;3.30;;;15.10;56.30;;;;;;4896406;29;20212;-39
2022/08/30 13:37:20;;;;;;;3.88;2.70;;;15.10;56.40;;;;;;4894085;29;20204;-42
2022/08/30 13:39:51;;;;;;;5.65;3.17;;;15.10;56.40;;;;;;4906876;23;20212;-33
2022/08/30 13:42:22;;;;;;;5.68;2.72;;;15.10;56.40;;;;;;4911977;29;20228;-40
2022/08/30 13:44:52;;;;;;;4.07;2.83;;;15.00;56.30;;;;;;4912354;29;20227;-39
2022/08/30 13:47:23;;;;;;;4.35;3.33;;;15.00;56.30;;;;;;4912324;29;20204;-38
2022/08/30 13:49:56;;;;;;;4.35;2.83;;;15.00;56.40;;;;;;4912845;29;20668;-45
2022/08/30 13:52:27;;;;;;;2.92;2.60;;;15.00;56.30;;;;;;4911782;29;20200;-37
2022/08/30 13:54:59;;;;;;;4.82;2.92;;;15.00;56.30;;;;;;4893640;29;20583;-41
2022/08/30 13:57:31;;;;;;;4.20;2.63;;;15.00;56.30;;;;;;4901890;29;20523;-36
2022/08/30 14:00:01;;;;;;;3.50;2.60;;;15.00;56.30;;;;;;4894028;29;20209;-42
2022/08/30 14:02:32;;;;;;;4.30;2.55;;;15.00;56.40;;;;;;4893743;29;20250;-49
2022/08/30 14:05:05;;;;;;;4.97;3.10;;;14.90;56.30;;;;;;4893535;29;20225;-39
2022/08/30 14:07:35;;;;;;;5.30;2.85;;;14.90;56.30;;;;;;4893300;29;20205;-53
2022/08/30 14:10:07;;;;;;;3.10;2.50;;;14.90;56.30;;;;;;4893518;29;20700;-48
2022/08/30 14:12:37;;;;;;;5.25;2.97;;;14.90;56.40;;;;;;4897809;29;20200;-37
2022/08/30 14:15:09;;;;;;;4.50;2.47;;;14.90;56.30;;;;;;4904069;29;20714;-45
2022/08/30 14:17:39;;;;;;;3.72;2.90;;;14.80;56.30;;;;;;4912647;29;20672;-53
2022/08/30 14:20:13;;;;;;;4.90;2.38;;;14.80;56.30;;;;;;4912625;29;20196;-37
2022/08/30 14:22:43;;;;;;;3.65;2.55;;;14.80;56.40;;;;;;4911187;29;20224;-50
2022/08/30 14:25:14;;;;;;;3.85;2.67;;;14.80;56.30;;;;;;4893651;29;20240;-37
2022/08/30 14:27:45;;;;;;;3.50;2.40;;;14.90;56.40;;;;;;4894253;29;20223;-39
2022/08/30 14:30:16;;;;;;;4.45;2.78;;;14.90;56.30;;;;;;4897022;29;20197;-38
2022/08/30 14:32:46;;;;;;;2.88;2.47;;;14.80;56.30;;;;;;4896768;29;20571;-38
2022/08/30 14:35:20;;;;;;;4.07;2.85;;;14.80;56.30;;;;;;4898794;29;20271;-43
2022/08/30 14:37:51;;;;;;;3.67;2.50;;;14.80;56.30;;;;;;4898188;29;20583;-37